Time;durP1;ratioP1;P1;durP2;ratioP2;P2;SDS_P1;SDS_P2;PMS_P1;PMS_P2;Temp;Humidity;BMP_temperature;BMP_pressure;BME280_temperature;BME280_humidity;BME280_pressure;Samples;Min_cycle;Max_cycle;Signal;HPM_P1;HPM_P2
2022/11/09 00:00:26;;;;;;;;;;;;;;;13.08;100.00;98831.13;8022751;29;19992;-77
2022/11/09 00:04:27;;;;;;;;;;;;;;;13.08;100.00;98832.88;8013138;29;19988;-78
2022/11/09 00:08:29;;;;;;;;;;;;;;;13.05;100.00;98833.81;8001602;29;19932;-77
2022/11/09 00:12:30;;;;;;;;;;;;;;;13.04;100.00;98836.47;8031188;29;19939;-78
2022/11/09 00:16:31;;;;;;;;;;;;;;;12.98;100.00;98843.53;8032499;29;19932;-77
2022/11/09 00:20:33;;;;;;;;;;;;;;;12.97;100.00;98843.56;8012598;29;19933;-77
2022/11/09 00:24:34;;;;;;;;;;;;;;;12.95;100.00;98841.00;8014885;29;19966;-77
2022/11/09 00:28:36;;;;;;;;;;;;;;;12.97;100.00;98844.44;8012754;29;19933;-76
2022/11/09 00:36:47;;;;;;;;;;;;;;;12.99;100.00;98828.75;8126695;24;19939;-77
2022/11/09 00:40:48;;;;;;;;;;;;;;;12.98;100.00;98821.81;8008327;29;19940;-76
2022/11/09 00:44:50;;;;;;;;;;;;;;;13.00;100.00;98822.66;8009708;29;19928;-77
2022/11/09 00:48:53;;;;;;;;;;;;;;;12.99;100.00;98813.97;7991125;29;19996;-77
2022/11/09 00:52:54;;;;;;;;;;;;;;;12.97;100.00;98818.38;8005709;29;20001;-76
2022/11/09 00:56:55;;;;;;;;;;;;;;;12.96;100.00;98811.44;7992580;29;19939;-77
2022/11/09 01:00:57;;;;;;;;;;;;;;;12.95;100.00;98791.50;8010606;29;20449;-77
2022/11/09 01:04:59;;;;;;;;;;;;;;;12.96;100.00;98797.56;8002746;29;19991;-77
2022/11/09 01:09:00;;;;;;;;;;;;;;;12.95;100.00;98796.69;8000858;29;19996;-77
2022/11/09 01:13:01;;;;;;;;;;;;;;;12.95;100.00;98794.09;8002615;29;19932;-77
2022/11/09 01:17:03;;;;;;;;;;;;;;;12.93;100.00;98795.88;7989524;29;20354;-78
2022/11/09 01:21:05;;;;;;;;;;;;;;;12.92;100.00;98794.13;8007566;29;20092;-77
2022/11/09 01:25:07;;;;;;;;;;;;;;;12.93;100.00;98782.84;8006354;29;19932;-77
2022/11/09 01:29:08;;;;;;;;;;;;;;;12.94;100.00;98765.47;7990605;29;19936;-77
2022/11/09 01:33:10;;;;;;;;;;;;;;;12.93;100.00;98761.16;7983291;29;19984;-77
2022/11/09 01:37:12;;;;;;;;;;;;;;;12.92;100.00;98743.78;8005323;29;19932;-77
2022/11/09 01:41:18;;;;;;;;;;;;;;;12.92;100.00;98743.78;8001608;29;19936;-77
2022/11/09 01:45:22;;;;;;;;;;;;;;;12.90;100.00;98763.81;8001005;29;19961;-77
2022/11/09 01:49:30;;;;;;;;;;;;;;;12.89;100.00;98755.13;8002257;29;20325;-77
2022/11/09 01:53:33;;;;;;;;;;;;;;;12.87;100.00;98751.72;8008019;29;20394;-78
2022/11/09 01:57:39;;;;;;;;;;;;;;;12.86;100.00;98746.53;8002853;29;19941;-77
2022/11/09 02:01:41;;;;;;;;;;;;;;;12.86;100.00;98743.94;7998232;29;19997;-77
2022/11/09 02:05:43;;;;;;;;;;;;;;;12.86;100.00;98743.94;7990027;29;20441;-77
2022/11/09 02:09:50;;;;;;;;;;;;;;;12.88;100.00;98739.53;8011947;29;19937;-78
2022/11/09 02:13:54;;;;;;;;;;;;;;;12.86;100.00;98734.38;7992240;29;20282;-77
2022/11/09 02:17:56;;;;;;;;;;;;;;;12.87;100.00;98749.09;8007083;29;19939;-77
2022/11/09 02:21:57;;;;;;;;;;;;;;;12.87;100.00;98748.25;8004962;29;19936;-77
2022/11/09 02:26:00;;;;;;;;;;;;;;;12.86;100.00;98752.59;8006893;29;19989;-77
2022/11/09 02:30:03;;;;;;;;;;;;;;;12.85;100.00;98769.13;8005916;29;19933;-77
2022/11/09 02:34:07;;;;;;;;;;;;;;;12.87;100.00;98776.91;8001920;29;19989;-77
2022/11/09 02:38:09;;;;;;;;;;;;;;;12.87;100.00;98771.69;8005503;29;19988;-77
2022/11/09 02:42:13;;;;;;;;;;;;;;;12.88;100.00;98776.03;8007690;29;19981;-78
2022/11/09 02:46:22;;;;;;;;;;;;;;;12.84;100.00;98785.66;7980705;29;19933;-77
2022/11/09 02:50:23;;;;;;;;;;;;;;;12.86;100.00;98786.47;7989607;29;20291;-77
2022/11/09 02:54:25;;;;;;;;;;;;;;;12.87;100.00;98780.38;7993058;29;19936;-77
2022/11/09 02:58:26;;;;;;;;;;;;;;;12.91;100.00;98789.81;8006475;29;19932;-77
2022/11/09 03:02:27;;;;;;;;;;;;;;;12.90;100.00;98787.25;8002071;29;19932;-77
2022/11/09 03:06:35;;;;;;;;;;;;;;;12.91;100.00;98788.97;8006978;29;19993;-77
2022/11/09 03:10:36;;;;;;;;;;;;;;;12.94;100.00;98773.28;7997051;29;19936;-78
2022/11/09 03:14:38;;;;;;;;;;;;;;;12.92;100.00;98770.69;8013767;29;19992;-77
2022/11/09 03:18:39;;;;;;;;;;;;;;;12.93;100.00;98766.38;8004208;29;19932;-77
2022/11/09 03:22:40;;;;;;;;;;;;;;;12.92;100.00;98762.00;8002345;29;20357;-77
2022/11/09 03:26:41;;;;;;;;;;;;;;;12.91;100.00;98776.78;7993359;29;20362;-77
2022/11/09 03:30:43;;;;;;;;;;;;;;;12.88;100.00;98763.84;8011838;29;20359;-77
2022/11/09 03:34:44;;;;;;;;;;;;;;;12.89;100.00;98775.13;7988207;29;20391;-77
2022/11/09 03:38:45;;;;;;;;;;;;;;;12.88;100.00;98789.91;8004786;29;20002;-78
2022/11/09 03:42:47;;;;;;;;;;;;;;;12.87;100.00;98790.78;8014139;29;19928;-77
2022/11/09 03:46:49;;;;;;;;;;;;;;;12.89;100.00;98791.63;8010106;29;19932;-78
2022/11/09 03:50:50;;;;;;;;;;;;;;;12.91;100.00;98788.97;8021889;29;20686;-78
2022/11/09 03:54:51;;;;;;;;;;;;;;;12.91;100.00;98792.44;8013024;29;20288;-77
2022/11/09 03:58:53;;;;;;;;;;;;;;;12.90;100.00;98785.50;8004067;29;19942;-77
2022/11/09 04:02:54;;;;;;;;;;;;;;;12.89;100.00;98789.00;7995768;29;20312;-77
2022/11/09 04:06:56;;;;;;;;;;;;;;;12.90;100.00;98784.66;8009972;29;19985;-77
2022/11/09 04:10:57;;;;;;;;;;;;;;;12.88;100.00;98784.69;8010415;29;19932;-77
2022/11/09 04:14:58;;;;;;;;;;;;;;;12.88;100.00;98765.59;8013312;29;20327;-77
2022/11/09 04:19:00;;;;;;;;;;;;;;;12.86;100.00;98760.44;7992506;29;20616;-77
2022/11/09 04:23:03;;;;;;;;;;;;;;;12.85;100.00;98771.75;8012126;29;19940;-76
2022/11/09 04:27:05;;;;;;;;;;;;;;;12.83;100.00;98772.66;7979048;29;19939;-77
2022/11/09 04:31:06;;;;;;;;;;;;;;;12.81;100.00;98782.28;8002870;29;20835;-77
2022/11/09 04:35:08;;;;;;;;;;;;;;;12.79;100.00;98790.13;8011167;29;19932;-77
2022/11/09 04:39:10;;;;;;;;;;;;;;;12.79;100.00;98794.50;8006156;29;20402;-77
2022/11/09 04:43:12;;;;;;;;;;;;;;;12.77;100.00;98791.91;8008544;29;19937;-77
2022/11/09 04:47:13;;;;;;;;;;;;;;;12.76;100.00;98792.81;7999945;29;19936;-77
2022/11/09 04:51:15;;;;;;;;;;;;;;;12.76;100.00;98794.56;8012627;29;19932;-78
2022/11/09 04:55:16;;;;;;;;;;;;;;;12.76;100.00;98794.56;8007521;29;20412;-77
2022/11/09 04:59:18;;;;;;;;;;;;;;;12.76;100.00;98758.09;8010303;29;19932;-77
2022/11/09 05:03:19;;;;;;;;;;;;;;;12.71;100.00;98752.97;7989365;29;19932;-77
2022/11/09 05:07:21;;;;;;;;;;;;;;;12.68;100.00;98748.69;7998564;29;19932;-76
2022/11/09 05:11:22;;;;;;;;;;;;;;;12.66;100.00;98763.50;8005874;29;19943;-76
2022/11/09 05:15:24;;;;;;;;;;;;;;;12.64;100.00;98741.00;8004470;29;20331;-76
2022/11/09 05:19:25;;;;;;;;;;;;;;;12.62;100.00;98740.16;8007390;29;19940;-77
2022/11/09 05:27:47;;;;;;;;;;;;;;;12.54;100.00;98789.81;8005062;29;19940;-77
2022/11/09 05:31:48;;;;;;;;;;;;;;;12.54;100.00;98768.13;8005524;29;19969;-77
2022/11/09 05:35:53;;;;;;;;;;;;;;;12.54;100.00;98773.31;7996386;29;20047;-76
2022/11/09 05:39:54;;;;;;;;;;;;;;;12.54;100.00;98776.78;8007804;29;19932;-77
2022/11/09 05:43:56;;;;;;;;;;;;;;;12.51;100.00;98774.25;8012177;29;19932;-77
2022/11/09 05:47:57;;;;;;;;;;;;;;;12.51;100.00;98784.66;7991352;29;19932;-77
2022/11/09 05:51:58;;;;;;;;;;;;;;;12.52;100.00;98780.31;7993321;29;20415;-77
2022/11/09 05:56:05;;;;;;;;;;;;;;;12.52;100.00;98780.31;7990722;29;19940;-77
2022/11/09 06:00:06;;;;;;;;;;;;;;;12.52;100.00;98786.38;8001783;29;20355;-78
2022/11/09 06:04:11;;;;;;;;;;;;;;;12.50;100.00;98785.56;7991083;29;19932;-78
2022/11/09 06:08:13;;;;;;;;;;;;;;;12.47;100.00;98796.06;7992867;29;19932;-78
2022/11/09 06:12:14;;;;;;;;;;;;;;;12.45;100.00;98796.97;7996525;29;19985;-78
2022/11/09 06:16:16;;;;;;;;;;;;;;;12.44;100.00;98806.53;7985234;29;20652;-78
2022/11/09 06:20:17;;;;;;;;;;;;;;;12.42;100.00;98815.28;8016378;29;19932;-78
2022/11/09 06:24:18;;;;;;;;;;;;;;;12.41;100.00;98811.81;8001379;29;19954;-78
2022/11/09 06:28:20;;;;;;;;;;;;;;;12.40;100.00;98821.38;7995111;29;19963;-78
2022/11/09 06:32:21;;;;;;;;;;;;;;;12.39;100.00;98829.22;7985457;29;19933;-78
2022/11/09 06:36:22;;;;;;;;;;;;;;;12.34;100.00;98831.03;8002324;29;20006;-80
2022/11/09 06:40:24;;;;;;;;;;;;;;;12.32;100.00;98831.06;8008959;29;19947;-83
2022/11/09 06:44:26;;;;;;;;;;;;;;;12.30;100.00;98840.66;8006006;29;19994;-79
2022/11/09 06:48:27;;;;;;;;;;;;;;;12.30;100.00;98845.88;8004063;29;19993;-80
2022/11/09 06:52:29;;;;;;;;;;;;;;;12.28;100.00;98839.84;8006673;29;19936;-78
2022/11/09 06:56:30;;;;;;;;;;;;;;;12.26;100.00;98852.03;8016420;29;19928;-78
2022/11/09 07:00:31;;;;;;;;;;;;;;;12.20;100.00;98853.88;7988272;29;20362;-79
2022/11/09 07:04:33;;;;;;;;;;;;;;;12.15;100.00;98863.53;7994267;29;19929;-79
2022/11/09 07:08:34;;;;;;;;;;;;;;;12.13;100.00;98870.50;8016150;29;20405;-79
2022/11/09 07:12:35;;;;;;;;;;;;;;;12.09;100.00;98869.72;8000544;29;19940;-80
2022/11/09 07:16:37;;;;;;;;;;;;;;;12.05;100.00;98863.72;8001267;29;19929;-80
2022/11/09 07:20:38;;;;;;;;;;;;;;;12.04;100.00;98871.56;8005719;29;19964;-81
2022/11/09 07:24:40;;;;;;;;;;;;;;;12.01;100.00;98862.03;8013645;29;19962;-81
2022/11/09 07:28:41;;;;;;;;;;;;;;;12.02;100.00;98873.31;8008053;29;19929;-81
2022/11/09 07:32:42;;;;;;;;;;;;;;;12.01;100.00;98871.59;8009850;29;19936;-80
2022/11/09 07:37:04;;;;;;;;;;;;;;;12.02;100.00;98881.09;8012863;29;19939;-81
2022/11/09 07:41:05;;;;;;;;;;;;;;;12.02;100.00;98866.34;8036645;29;19991;-85
2022/11/09 07:45:08;;;;;;;;;;;;;;;12.01;100.00;98888.06;8062368;29;19940;-85
2022/11/09 07:49:12;;;;;;;;;;;;;;;12.05;100.00;98901.88;8042082;29;19936;-83
2022/11/09 07:53:15;;;;;;;;;;;;;;;12.15;100.00;98892.16;8055496;29;19944;-84
2022/11/09 07:57:17;;;;;;;;;;;;;;;12.23;100.00;98909.34;8044441;29;20737;-82
2022/11/09 08:01:19;;;;;;;;;;;;;;;12.34;100.00;98923.00;8018289;29;20322;-81
2022/11/09 08:05:20;;;;;;;;;;;;;;;12.41;100.00;98910.75;8030077;29;19956;-84
2022/11/09 08:09:22;;;;;;;;;;;;;;;12.46;100.00;98923.69;8050728;29;19992;-82
2022/11/09 08:13:24;;;;;;;;;;;;;;;12.49;100.00;98932.28;8050731;29;19995;-82
2022/11/09 08:17:28;;;;;;;;;;;;;;;12.50;100.00;98926.19;8058515;29;19913;-82
2022/11/09 08:21:39;;;;;;;;;;;;;;;12.52;100.00;98926.16;8061428;29;19912;-84
2022/11/09 08:25:45;;;;;;;;;;;;;;;12.54;100.00;98940.84;8055676;29;19952;-81
2022/11/09 08:29:49;;;;;;;;;;;;;;;12.59;100.00;98935.56;8031112;29;20016;-82
2022/11/09 08:34:15;;;;;;;;;;;;;;;12.60;100.00;98943.34;8040573;29;20466;-81
2022/11/09 08:38:17;;;;;;;;;;;;;;;12.60;100.00;98934.69;8030942;29;19932;-80
2022/11/09 08:42:35;;;;;;;;;;;;;;;12.64;100.00;98933.72;8034273;29;19935;-80
2022/11/09 08:46:37;;;;;;;;;;;;;;;12.69;100.00;98945.75;8021055;29;19928;-80
2022/11/09 08:50:41;;;;;;;;;;;;;;;12.75;100.00;98939.59;8038866;29;19932;-80
2022/11/09 08:54:43;;;;;;;;;;;;;;;12.84;100.00;98948.94;8029764;29;19964;-80
2022/11/09 08:58:45;;;;;;;;;;;;;;;12.93;100.00;98952.25;8035137;29;19980;-80
2022/11/09 09:02:46;;;;;;;;;;;;;;;12.98;100.00;98952.13;8017850;29;20375;-80
2022/11/09 09:06:48;;;;;;;;;;;;;;;13.32;100.00;98954.91;8023649;29;19937;-80
2022/11/09 09:10:49;;;;;;;;;;;;;;;13.80;99.37;98958.09;8026998;29;19932;-80
2022/11/09 09:14:51;;;;;;;;;;;;;;;14.25;96.66;98963.06;8038244;29;19943;-80
2022/11/09 09:18:52;;;;;;;;;;;;;;;14.59;94.39;98973.50;8009059;29;19933;-80
2022/11/09 09:22:56;;;;;;;;;;;;;;;14.89;90.88;98969.16;8011318;29;20460;-80
2022/11/09 09:26:57;;;;;;;;;;;;;;;15.04;87.20;98968.72;8038052;29;20026;-80
2022/11/09 09:30:59;;;;;;;;;;;;;;;15.32;86.47;98965.28;7997191;29;19962;-79
2022/11/09 09:35:01;;;;;;;;;;;;;;;15.20;84.54;98973.50;8036505;29;20027;-80
2022/11/09 09:39:02;;;;;;;;;;;;;;;15.22;85.02;98972.53;8026655;29;20011;-80
2022/11/09 09:43:04;;;;;;;;;;;;;;;15.21;85.67;98972.59;8020495;29;20601;-80
2022/11/09 09:47:12;;;;;;;;;;;;;;;15.37;84.60;98969.47;8025870;29;20274;-80
2022/11/09 09:51:30;;;;;;;;;;;;;;;15.28;83.62;98980.22;8036187;29;20036;-80
2022/11/09 09:55:49;;;;;;;;;;;;;;;15.26;84.73;98989.88;7963209;29;19936;-79
2022/11/09 10:00:03;;;;;;;;;;;;;;;15.16;83.92;99005.88;8019305;29;20414;-80
2022/11/09 10:04:31;;;;;;;;;;;;;;;15.18;84.91;98993.59;7988351;29;19932;-80
2022/11/09 10:08:46;;;;;;;;;;;;;;;15.16;84.85;98992.81;8031660;29;20034;-80
2022/11/09 10:13:16;;;;;;;;;;;;;;;15.19;84.39;99004.03;8012821;29;19992;-80
2022/11/09 10:17:39;;;;;;;;;;;;;;;15.23;85.01;98992.56;8012385;29;19935;-80
2022/11/09 10:21:55;;;;;;;;;;;;;;;15.13;82.09;99000.75;8019697;29;20397;-80
2022/11/09 10:26:33;;;;;;;;;;;;;;;15.18;82.93;99001.47;8010870;29;19975;-80
2022/11/09 10:30:59;;;;;;;;;;;;;;;15.10;82.43;99015.63;7998880;29;20023;-80
2022/11/09 10:35:44;;;;;;;;;;;;;;;15.08;82.88;99006.09;8007462;29;19940;-80
2022/11/09 10:40:15;;;;;;;;;;;;;;;15.10;82.57;99002.56;7983838;29;19929;-80
2022/11/09 10:45:13;;;;;;;;;;;;;;;15.08;82.79;98998.25;8011055;29;20307;-80
2022/11/09 10:49:38;;;;;;;;;;;;;;;15.17;82.99;98994.50;8007909;29;19932;-80
2022/11/09 10:54:22;;;;;;;;;;;;;;;15.28;82.51;98993.31;8006316;29;20263;-80
2022/11/09 10:58:44;;;;;;;;;;;;;;;15.34;81.63;98979.19;8012189;29;19938;-80
2022/11/09 11:03:03;;;;;;;;;;;;;;;15.42;81.48;98977.16;8005591;29;19913;-80
2022/11/09 11:07:37;;;;;;;;;;;;;;;15.25;80.53;98984.66;8008507;29;20373;-80
2022/11/09 11:12:26;;;;;;;;;;;;;;;15.25;81.90;98984.66;8011328;29;19937;-80
2022/11/09 11:16:52;;;;;;;;;;;;;;;15.22;81.72;98974.31;7986772;29;19933;-80
2022/11/09 11:21:13;;;;;;;;;;;;;;;15.19;82.81;98987.47;8018757;29;19932;-80
2022/11/09 11:25:56;;;;;;;;;;;;;;;15.14;83.07;98990.25;7982849;29;19932;-80
2022/11/09 11:30:33;;;;;;;;;;;;;;;15.01;82.71;98986.25;8011629;29;19936;-80
2022/11/09 11:34:44;;;;;;;;;;;;;;;14.90;83.01;98986.56;8012801;29;19949;-80
2022/11/09 11:39:28;;;;;;;;;;;;;;;14.82;84.11;98984.16;7979915;29;19989;-80
2022/11/09 11:44:15;;;;;;;;;;;;;;;14.82;84.85;98978.09;7992293;29;19947;-80
2022/11/09 11:49:31;;;;;;;;;;;;;;;14.81;84.60;98978.97;8001598;29;19967;-80
2022/11/09 11:54:09;;;;;;;;;;;;;;;14.80;85.40;98983.34;7989243;29;20392;-80
2022/11/09 11:59:10;;;;;;;;;;;;;;;14.82;85.44;98992.00;7996160;29;19939;-80
2022/11/09 12:03:39;;;;;;;;;;;;;;;14.77;84.91;98988.66;7998489;29;19937;-81
2022/11/09 12:08:23;;;;;;;;;;;;;;;14.64;85.12;98994.28;8011800;29;20020;-80
2022/11/09 12:13:18;;;;;;;;;;;;;;;14.61;85.48;98987.38;7997237;29;19920;-81
2022/11/09 12:18:27;;;;;;;;;;;;;;;14.61;86.27;98987.38;8015094;29;19978;-80
2022/11/09 12:22:54;;;;;;;;;;;;;;;14.58;86.19;98990.06;8003935;29;20362;-80
2022/11/09 12:27:45;;;;;;;;;;;;;;;14.57;86.89;98987.50;8022794;29;19976;-80
2022/11/09 12:32:48;;;;;;;;;;;;;;;14.52;87.58;98998.06;8012903;29;19936;-80
2022/11/09 12:42:57;;;;;;;;;;;;;;;14.40;87.80;98988.78;8011475;29;19940;-80
2022/11/09 12:47:51;;;;;;;;;;;;;;;14.31;89.15;98986.41;8011147;29;19940;-80
2022/11/09 12:52:19;;;;;;;;;;;;;;;14.27;89.22;98995.22;8044493;29;19995;-80
2022/11/09 12:56:26;;;;;;;;;;;;;;;14.27;89.66;98997.81;8040334;29;19935;-80
2022/11/09 13:00:34;;;;;;;;;;;;;;;14.26;90.27;98997.88;8044583;29;19956;-79
2022/11/09 13:04:36;;;;;;;;;;;;;;;14.21;88.89;98998.00;8029562;29;19996;-79
2022/11/09 13:08:39;;;;;;;;;;;;;;;14.23;88.58;99001.41;8042321;29;19944;-80
2022/11/09 13:12:45;;;;;;;;;;;;;;;14.14;88.80;98999.88;8025610;29;19929;-80
2022/11/09 13:16:51;;;;;;;;;;;;;;;14.05;88.47;98996.66;8047648;29;19943;-80
2022/11/09 13:20:54;;;;;;;;;;;;;;;14.02;88.68;99001.97;8042757;29;19944;-80
2022/11/09 13:25:02;;;;;;;;;;;;;;;14.02;88.88;98997.59;8048379;29;19968;-80
2022/11/09 13:29:22;;;;;;;;;;;;;;;13.98;87.81;98998.53;8044959;29;19939;-80
2022/11/09 13:33:32;;;;;;;;;;;;;;;13.95;88.16;98993.41;8027655;29;19937;-80
2022/11/09 13:43:16;;;;;;;;;;;;;;;13.87;87.95;99003.19;8036191;29;19924;-80
2022/11/09 13:48:08;;;;;;;;;;;;;;;13.84;87.51;98996.28;8026331;29;19935;-80
2022/11/09 13:53:53;;;;;;;;;;;;;;;13.76;86.89;99000.81;8009507;29;19924;-80
2022/11/09 13:58:49;;;;;;;;;;;;;;;13.76;87.72;98999.97;8009621;29;19928;-80
2022/11/09 14:03:30;;;;;;;;;;;;;;;13.70;87.24;99008.78;8003517;29;19962;-80
2022/11/09 14:08:23;;;;;;;;;;;;;;;13.68;87.50;99018.41;8051842;29;19971;-80
2022/11/09 14:13:28;;;;;;;;;;;;;;;13.68;87.73;99026.25;7938686;29;19937;-80
2022/11/09 14:23:02;;;;;;;;;;;;;;;13.65;88.72;99021.09;7974273;29;19949;-80
2022/11/09 14:27:20;;;;;;;;;;;;;;;13.63;88.87;99030.69;7954641;29;19940;-80
2022/11/09 14:31:25;;;;;;;;;;;;;;;13.59;88.93;99026.44;7988049;29;19917;-80
2022/11/09 14:35:30;;;;;;;;;;;;;;;13.59;88.97;99035.13;7949833;29;19983;-80
2022/11/09 14:39:36;;;;;;;;;;;;;;;13.59;89.00;99039.47;7965643;29;19930;-81
2022/11/09 14:43:39;;;;;;;;;;;;;;;13.57;89.03;99038.66;8026882;29;19932;-81
2022/11/09 14:47:43;;;;;;;;;;;;;;;13.54;89.33;99043.94;8046672;29;19943;-80
2022/11/09 14:51:47;;;;;;;;;;;;;;;13.55;89.39;99046.50;8032834;29;19929;-80
2022/11/09 14:55:49;;;;;;;;;;;;;;;13.49;89.40;99045.81;8043300;29;19985;-80
2022/11/09 14:59:50;;;;;;;;;;;;;;;13.47;89.57;99051.06;8048198;29;19932;-80
2022/11/09 15:04:11;;;;;;;;;;;;;;;13.49;89.76;99061.44;8049216;29;19917;-80
2022/11/09 15:08:18;;;;;;;;;;;;;;;13.44;89.69;99061.53;8037462;29;19912;-80
2022/11/09 15:12:20;;;;;;;;;;;;;;;13.45;89.86;99067.59;8049247;29;19928;-80
2022/11/09 15:16:23;;;;;;;;;;;;;;;13.39;89.66;99057.31;8051136;29;19963;-80
2022/11/09 15:20:26;;;;;;;;;;;;;;;13.35;89.74;99061.75;8052543;29;19932;-81
2022/11/09 15:24:42;;;;;;;;;;;;;;;13.29;89.53;99067.09;8047523;29;19933;-80
2022/11/09 15:28:46;;;;;;;;;;;;;;;13.25;90.29;99068.03;8031497;29;19932;-80
2022/11/09 15:32:48;;;;;;;;;;;;;;;13.23;90.10;99072.41;8046608;29;20155;-80
2022/11/09 15:36:54;;;;;;;;;;;;;;;13.18;90.65;99069.91;8080550;29;19912;-80
2022/11/09 15:40:57;;;;;;;;;;;;;;;13.14;91.22;99078.66;8036073;29;20736;-80
2022/11/09 15:45:00;;;;;;;;;;;;;;;13.07;91.69;99077.03;7998106;29;19932;-80
2022/11/09 15:54:24;;;;;;;;;;;;;;;12.97;91.92;99094.63;9872022;23;19934;31
2022/11/09 16:04:34;;;;;;;;;;;;;;;12.84;92.81;99107.88;9802826;23;20372;31
2022/11/09 16:09:59;;;;;;;;;;;;;;;12.77;92.69;99111.50;7910435;29;19934;-85
2022/11/09 16:19:21;;;;;;;;;;;;;;;12.63;93.84;99133.44;8067752;29;19938;-87
2022/11/09 16:23:45;;;;;;;;;;;;;;;12.60;94.06;99143.06;8061690;29;19913;-85
2022/11/09 16:28:23;;;;;;;;;;;;;;;12.54;93.89;99146.59;8061680;29;19938;-86
2022/11/09 16:33:07;;;;;;;;;;;;;;;12.46;94.27;99158.88;8060878;29;19919;-87
2022/11/09 16:37:23;;;;;;;;;;;;;;;12.45;94.50;99169.34;8060198;29;19965;-88
2022/11/09 16:41:36;;;;;;;;;;;;;;;12.40;94.83;99178.09;8059293;29;19913;-85
2022/11/09 16:45:55;;;;;;;;;;;;;;;12.38;95.10;99179.81;8060851;29;20010;-84
2022/11/09 16:50:21;;;;;;;;;;;;;;;12.33;95.38;99184.25;8060460;29;19913;-84
2022/11/09 16:54:28;;;;;;;;;;;;;;;12.30;95.64;99202.53;8060387;29;19921;-87
2022/11/09 16:58:54;;;;;;;;;;;;;;;12.29;95.89;99215.56;8642771;27;19905;-88
2022/11/09 17:03:02;;;;;;;;;;;;;;;12.27;96.27;99218.19;8623221;27;19958;-84
2022/11/09 17:07:08;;;;;;;;;;;;;;;12.25;95.92;99224.31;8641245;27;19930;-88
2022/11/09 17:11:26;;;;;;;;;;;;;;;12.20;96.31;99233.91;8640692;27;19962;-88
2022/11/09 17:15:32;;;;;;;;;;;;;;;12.18;96.29;99236.53;8610429;27;19906;-88
2022/11/09 17:19:42;;;;;;;;;;;;;;;12.15;96.16;99235.72;8641335;27;19929;-89
2022/11/09 17:23:47;;;;;;;;;;;;;;;12.13;96.49;99240.06;8634665;27;19906;-88
2022/11/09 17:27:54;;;;;;;;;;;;;;;12.06;96.26;99253.19;8633285;27;19934;-88
2022/11/09 17:32:02;;;;;;;;;;;;;;;12.01;97.25;99257.56;8634713;27;19906;-91
2022/11/09 17:36:15;;;;;;;;;;;;;;;11.98;96.90;99268.00;8622612;27;19906;-92
2022/11/09 17:40:30;;;;;;;;;;;;;;;11.93;97.25;99272.41;8660812;27;19910;-87
2022/11/09 17:44:34;;;;;;;;;;;;;;;11.93;97.84;99276.75;8628722;27;19985;-90
2022/11/09 17:48:42;;;;;;;;;;;;;;;11.89;97.42;99286.34;8519950;27;20304;-90
2022/11/09 17:52:47;;;;;;;;;;;;;;;11.85;97.97;99295.06;8499577;28;20031;-87
2022/11/09 17:56:50;;;;;;;;;;;;;;;11.85;98.00;99299.38;8483560;28;19919;-87
2022/11/09 18:00:53;;;;;;;;;;;;;;;11.84;98.42;99295.91;8507781;28;19919;-88
2022/11/09 18:05:01;;;;;;;;;;;;;;;11.75;97.91;99304.66;8511857;27;19935;-91
2022/11/09 18:09:22;;;;;;;;;;;;;;;11.65;97.92;99300.44;8479147;28;20030;-91
2022/11/09 18:13:44;;;;;;;;;;;;;;;11.59;98.74;99310.91;8476133;28;19928;-93
2022/11/09 18:18:22;;;;;;;;;;;;;;;11.50;98.34;99309.28;8495185;28;19991;-89
2022/11/09 18:23:20;;;;;;;;;;;;;;;11.40;98.96;99320.63;8320037;28;19929;-90
2022/11/09 18:27:28;;;;;;;;;;;;;;;11.33;98.66;99324.16;8334040;28;19926;-92
2022/11/09 18:31:31;;;;;;;;;;;;;;;11.23;98.64;99329.44;8325731;28;19941;-94
2022/11/09 18:35:38;;;;;;;;;;;;;;;11.18;99.12;99339.88;8316552;28;19928;-88
2022/11/09 18:39:57;;;;;;;;;;;;;;;11.09;99.26;99347.72;8315477;28;19929;-83
2022/11/09 18:44:46;;;;;;;;;;;;;;;11.02;99.44;99353.84;8311434;28;19940;-88
2022/11/09 18:58:20;;;;;;;;;;;;;;;10.79;100.00;99365.25;7631227;26;20384;-91
2022/11/09 19:02:23;;;;;;;;;;;;;;;10.73;100.00;99361.81;8390009;28;19967;-89
2022/11/09 19:06:26;;;;;;;;;;;;;;;10.59;99.85;99365.34;8385235;28;19940;-89
2022/11/09 19:10:29;;;;;;;;;;;;;;;10.52;100.00;99370.56;8391294;28;19950;-91
2022/11/09 19:14:42;;;;;;;;;;;;;;;10.41;99.77;99372.34;8398811;28;19936;-91
2022/11/09 19:19:31;;;;;;;;;;;;;;;10.35;100.00;99380.16;8282789;28;19925;-89
2022/11/09 19:23:50;;;;;;;;;;;;;;;10.32;100.00;99385.38;8289322;28;20004;-90
2022/11/09 19:28:53;;;;;;;;;;;;;;;10.28;100.00;99398.34;8286461;28;19926;-89
2022/11/09 19:33:23;;;;;;;;;;;;;;;10.22;100.00;99397.50;8284329;28;19925;-88
2022/11/09 19:38:53;;;;;;;;;;;;;;;10.12;100.00;99411.34;8283956;28;19980;-87
2022/11/09 19:43:48;;;;;;;;;;;;;;;10.06;100.00;99416.56;8288430;28;19928;-89
2022/11/09 19:49:06;;;;;;;;;;;;;;;10.00;100.00;99431.25;8285338;28;19954;-87
2022/11/09 19:53:21;;;;;;;;;;;;;;;9.92;100.00;99424.34;8312360;28;19946;-86
2022/11/09 19:57:37;;;;;;;;;;;;;;;9.87;100.00;99433.84;8370603;28;20000;-87
2022/11/09 20:01:54;;;;;;;;;;;;;;;9.77;100.00;99429.53;8370331;28;19932;-86
2022/11/09 20:06:09;;;;;;;;;;;;;;;9.71;100.00;99437.34;8373007;28;19988;-85
2022/11/09 20:10:28;;;;;;;;;;;;;;;9.67;100.00;99439.03;8392580;28;19921;-86
2022/11/09 20:14:32;;;;;;;;;;;;;;;9.64;100.00;99439.91;8380635;28;19935;-86
2022/11/09 20:18:35;;;;;;;;;;;;;;;9.60;100.00;99447.69;8371592;28;19909;-83
2022/11/09 20:22:52;;;;;;;;;;;;;;;9.51;100.00;99448.53;8386745;28;19972;-83
2022/11/09 20:26:56;;;;;;;;;;;;;;;9.43;100.00;99455.44;8377504;28;19924;-82
2022/11/09 20:31:16;;;;;;;;;;;;;;;9.39;100.00;99462.38;8379453;28;19909;-82
2022/11/09 20:35:32;;;;;;;;;;;;;;;9.32;100.00;99475.28;8381140;28;19932;-83
2022/11/09 20:39:47;;;;;;;;;;;;;;;9.30;100.00;99479.59;8389555;28;19916;-83
2022/11/09 20:44:12;;;;;;;;;;;;;;;9.25;100.00;99489.09;8360024;28;19956;-81
2022/11/09 20:48:28;;;;;;;;;;;;;;;9.19;100.00;99496.88;8360138;28;19928;-83
2022/11/09 20:52:55;;;;;;;;;;;;;;;9.10;100.00;99492.50;8373620;28;19956;-83
2022/11/09 20:56:57;;;;;;;;;;;;;;;9.03;100.00;99498.53;8386450;28;19951;-81
2022/11/09 21:01:03;;;;;;;;;;;;;;;8.98;100.00;99505.44;8379753;28;19929;-83
2022/11/09 21:05:08;;;;;;;;;;;;;;;8.92;100.00;99513.16;8358408;28;19931;-83
2022/11/09 21:09:12;;;;;;;;;;;;;;;8.90;100.00;99509.72;8377045;28;19925;-83
2022/11/09 21:13:15;;;;;;;;;;;;;;;8.86;100.00;99521.78;8365000;28;19924;-83
2022/11/09 21:17:20;;;;;;;;;;;;;;;8.81;100.00;99523.50;8377978;28;19921;-83
2022/11/09 21:21:22;;;;;;;;;;;;;;;8.76;100.00;99527.75;8359676;28;20276;-81
2022/11/09 21:29:52;;;;;;;;;;;;;;;8.60;100.00;99544.06;8362243;28;19925;-79
2022/11/09 21:33:53;;;;;;;;;;;;;;;8.50;100.00;99548.34;8326454;28;19985;-80
2022/11/09 21:37:55;;;;;;;;;;;;;;;8.45;100.00;99556.06;8347532;28;19928;-80
2022/11/09 21:41:57;;;;;;;;;;;;;;;8.38;100.00;99563.75;8332780;28;19925;-79
2022/11/09 21:45:59;;;;;;;;;;;;;;;8.32;100.00;99572.31;8344167;28;19939;-78
2022/11/09 21:50:00;;;;;;;;;;;;;;;8.26;100.00;99577.47;8320626;28;19967;-79
2022/11/09 21:54:02;;;;;;;;;;;;;;;8.25;100.00;99586.03;8352011;28;19928;-80
2022/11/09 21:58:03;;;;;;;;;;;;;;;8.18;100.00;99585.16;8337482;28;20489;-80
2022/11/09 22:02:05;;;;;;;;;;;;;;;8.18;100.00;99598.06;8353650;28;20308;-80
2022/11/09 22:06:07;;;;;;;;;;;;;;;8.10;100.00;99614.41;8355068;28;19932;-80
2022/11/09 22:10:08;;;;;;;;;;;;;;;8.05;100.00;99618.63;8334240;28;20247;-80
2022/11/09 22:22:52;;;;;;;;;;;;;;;7.93;100.00;99634.06;8348228;28;19951;-78
2022/11/09 22:26:54;;;;;;;;;;;;;;;7.86;100.00;99627.94;8349062;28;19959;-78
2022/11/09 22:30:55;;;;;;;;;;;;;;;7.78;100.00;99635.63;8335188;28;20358;-79
2022/11/09 22:34:56;;;;;;;;;;;;;;;7.71;100.00;99640.69;8333274;28;20304;-78
2022/11/09 22:38:58;;;;;;;;;;;;;;;7.64;100.00;99647.50;8332483;28;19994;-81
2022/11/09 22:42:59;;;;;;;;;;;;;;;7.50;99.99;99654.22;8341057;28;19925;-81
2022/11/09 22:47:01;;;;;;;;;;;;;;;7.44;100.00;99657.63;8353822;28;19926;-81